sensor_id;sensor_type;location;lat;lon;timestamp;P1;durP1;ratioP1;P2;durP2;ratioP2
18867;SDS011;9563;49.240;9.088;2022-12-29T00:01:52;3.60;;;1.77;;
18867;SDS011;9563;49.240;9.088;2022-12-29T00:04:22;3.70;;;1.67;;
18867;SDS011;9563;49.240;9.088;2022-12-29T00:06:49;3.13;;;1.53;;
18867;SDS011;9563;49.240;9.088;2022-12-29T00:09:16;3.77;;;1.70;;
18867;SDS011;9563;49.240;9.088;2022-12-29T00:11:43;2.87;;;1.60;;
18867;SDS011;9563;49.240;9.088;2022-12-29T00:14:10;2.87;;;1.30;;
18867;SDS011;9563;49.240;9.088;2022-12-29T00:16:55;1.50;;;1.10;;
18867;SDS011;9563;49.240;9.088;2022-12-29T00:19:24;2.77;;;1.50;;
18867;SDS011;9563;49.240;9.088;2022-12-29T00:22:09;5.57;;;2.60;;
18867;SDS011;9563;49.240;9.088;2022-12-29T00:24:54;6.47;;;2.20;;
18867;SDS011;9563;49.240;9.088;2022-12-29T00:27:39;5.30;;;2.50;;
18867;SDS011;9563;49.240;9.088;2022-12-29T00:30:29;6.97;;;2.77;;
18867;SDS011;9563;49.240;9.088;2022-12-29T00:33:14;6.27;;;2.43;;
18867;SDS011;9563;49.240;9.088;2022-12-29T00:36:01;8.13;;;2.90;;
18867;SDS011;9563;49.240;9.088;2022-12-29T00:38:34;7.67;;;3.50;;
18867;SDS011;9563;49.240;9.088;2022-12-29T00:41:21;9.67;;;3.20;;
18867;SDS011;9563;49.240;9.088;2022-12-29T00:44:05;6.80;;;3.00;;
18867;SDS011;9563;49.240;9.088;2022-12-29T00:46:35;10.30;;;3.13;;
18867;SDS011;9563;49.240;9.088;2022-12-29T00:49:04;8.90;;;3.10;;
18867;SDS011;9563;49.240;9.088;2022-12-29T00:51:50;4.63;;;2.43;;
18867;SDS011;9563;49.240;9.088;2022-12-29T00:54:17;6.70;;;2.90;;
18867;SDS011;9563;49.240;9.088;2022-12-29T00:56:45;5.50;;;2.23;;
18867;SDS011;9563;49.240;9.088;2022-12-29T00:59:12;5.37;;;2.30;;
18867;SDS011;9563;49.240;9.088;2022-12-29T01:01:40;5.40;;;2.27;;
18867;SDS011;9563;49.240;9.088;2022-12-29T01:04:08;3.80;;;2.10;;
18867;SDS011;9563;49.240;9.088;2022-12-29T01:06:36;4.73;;;2.13;;
18867;SDS011;9563;49.240;9.088;2022-12-29T01:09:06;4.00;;;2.10;;
18867;SDS011;9563;49.240;9.088;2022-12-29T01:11:51;4.53;;;2.10;;
18867;SDS011;9563;49.240;9.088;2022-12-29T01:14:19;5.97;;;1.47;;
18867;SDS011;9563;49.240;9.088;2022-12-29T01:16:46;7.93;;;1.70;;
18867;SDS011;9563;49.240;9.088;2022-12-29T01:19:14;2.03;;;1.10;;
18867;SDS011;9563;49.240;9.088;2022-12-29T01:21:41;4.10;;;1.80;;
18867;SDS011;9563;49.240;9.088;2022-12-29T01:24:10;4.93;;;1.37;;
18867;SDS011;9563;49.240;9.088;2022-12-29T01:26:37;5.03;;;1.30;;
18867;SDS011;9563;49.240;9.088;2022-12-29T01:29:04;5.43;;;1.30;;
18867;SDS011;9563;49.240;9.088;2022-12-29T01:31:31;2.50;;;1.17;;
18867;SDS011;9563;49.240;9.088;2022-12-29T01:33:58;3.17;;;1.30;;
18867;SDS011;9563;49.240;9.088;2022-12-29T01:36:25;2.57;;;1.10;;
18867;SDS011;9563;49.240;9.088;2022-12-29T01:38:52;4.43;;;1.83;;
18867;SDS011;9563;49.240;9.088;2022-12-29T01:41:21;2.43;;;1.10;;
18867;SDS011;9563;49.240;9.088;2022-12-29T01:43:48;6.17;;;1.70;;
18867;SDS011;9563;49.240;9.088;2022-12-29T01:46:22;4.13;;;1.10;;
18867;SDS011;9563;49.240;9.088;2022-12-29T01:48:52;3.63;;;1.17;;
18867;SDS011;9563;49.240;9.088;2022-12-29T01:51:22;7.87;;;2.00;;
18867;SDS011;9563;49.240;9.088;2022-12-29T01:53:51;1.30;;;1.00;;
18867;SDS011;9563;49.240;9.088;2022-12-29T01:56:23;2.70;;;1.33;;
18867;SDS011;9563;49.240;9.088;2022-12-29T01:58:52;3.37;;;1.33;;
18867;SDS011;9563;49.240;9.088;2022-12-29T02:01:25;5.07;;;1.47;;
18867;SDS011;9563;49.240;9.088;2022-12-29T02:03:52;6.83;;;1.70;;
18867;SDS011;9563;49.240;9.088;2022-12-29T02:06:21;1.53;;;1.23;;
18867;SDS011;9563;49.240;9.088;2022-12-29T02:08:51;7.00;;;1.53;;
18867;SDS011;9563;49.240;9.088;2022-12-29T02:11:20;2.17;;;1.50;;
18867;SDS011;9563;49.240;9.088;2022-12-29T02:13:51;4.70;;;1.80;;
18867;SDS011;9563;49.240;9.088;2022-12-29T02:16:21;4.33;;;1.20;;
18867;SDS011;9563;49.240;9.088;2022-12-29T02:19:02;4.33;;;1.50;;
18867;SDS011;9563;49.240;9.088;2022-12-29T02:22:02;2.17;;;1.20;;
18867;SDS011;9563;49.240;9.088;2022-12-29T02:24:49;5.30;;;1.40;;
18867;SDS011;9563;49.240;9.088;2022-12-29T02:27:40;2.03;;;1.30;;
18867;SDS011;9563;49.240;9.088;2022-12-29T02:30:26;3.00;;;1.40;;
18867;SDS011;9563;49.240;9.088;2022-12-29T02:33:13;2.40;;;1.30;;
18867;SDS011;9563;49.240;9.088;2022-12-29T02:35:51;2.73;;;1.40;;
18867;SDS011;9563;49.240;9.088;2022-12-29T02:38:25;6.30;;;1.57;;
18867;SDS011;9563;49.240;9.088;2022-12-29T02:41:08;3.77;;;1.43;;
18867;SDS011;9563;49.240;9.088;2022-12-29T02:43:44;3.67;;;1.43;;
18867;SDS011;9563;49.240;9.088;2022-12-29T02:46:19;5.30;;;1.13;;
18867;SDS011;9563;49.240;9.088;2022-12-29T02:48:54;3.93;;;1.20;;
18867;SDS011;9563;49.240;9.088;2022-12-29T02:51:27;5.33;;;1.57;;
18867;SDS011;9563;49.240;9.088;2022-12-29T02:53:59;4.50;;;1.30;;
18867;SDS011;9563;49.240;9.088;2022-12-29T02:56:44;3.60;;;1.20;;
18867;SDS011;9563;49.240;9.088;2022-12-29T02:59:11;5.13;;;1.20;;
18867;SDS011;9563;49.240;9.088;2022-12-29T03:01:43;3.77;;;1.50;;
18867;SDS011;9563;49.240;9.088;2022-12-29T03:04:37;5.47;;;1.47;;
18867;SDS011;9563;49.240;9.088;2022-12-29T03:07:12;5.93;;;1.37;;
18867;SDS011;9563;49.240;9.088;2022-12-29T03:09:48;2.40;;;1.27;;
18867;SDS011;9563;49.240;9.088;2022-12-29T03:12:22;3.53;;;1.63;;
18867;SDS011;9563;49.240;9.088;2022-12-29T03:15:13;1.80;;;1.07;;
18867;SDS011;9563;49.240;9.088;2022-12-29T03:18:08;2.17;;;1.40;;
18867;SDS011;9563;49.240;9.088;2022-12-29T03:20:39;6.10;;;1.20;;
18867;SDS011;9563;49.240;9.088;2022-12-29T03:23:10;2.33;;;1.10;;
18867;SDS011;9563;49.240;9.088;2022-12-29T03:25:39;2.83;;;1.10;;
18867;SDS011;9563;49.240;9.088;2022-12-29T03:28:10;2.90;;;1.20;;
18867;SDS011;9563;49.240;9.088;2022-12-29T03:30:40;2.23;;;1.20;;
18867;SDS011;9563;49.240;9.088;2022-12-29T03:33:12;2.57;;;1.30;;
18867;SDS011;9563;49.240;9.088;2022-12-29T03:35:42;4.63;;;1.30;;
18867;SDS011;9563;49.240;9.088;2022-12-29T03:38:13;3.87;;;1.47;;
18867;SDS011;9563;49.240;9.088;2022-12-29T03:40:43;3.43;;;1.30;;
18867;SDS011;9563;49.240;9.088;2022-12-29T03:43:13;2.20;;;0.90;;
18867;SDS011;9563;49.240;9.088;2022-12-29T03:45:42;3.97;;;1.20;;
18867;SDS011;9563;49.240;9.088;2022-12-29T03:48:10;2.77;;;1.00;;
18867;SDS011;9563;49.240;9.088;2022-12-29T03:50:37;1.73;;;1.00;;
18867;SDS011;9563;49.240;9.088;2022-12-29T03:53:04;6.07;;;1.33;;
18867;SDS011;9563;49.240;9.088;2022-12-29T03:55:31;1.40;;;1.00;;
18867;SDS011;9563;49.240;9.088;2022-12-29T03:57:58;1.57;;;0.83;;
18867;SDS011;9563;49.240;9.088;2022-12-29T04:00:26;2.53;;;0.93;;
18867;SDS011;9563;49.240;9.088;2022-12-29T04:02:53;4.03;;;1.40;;
18867;SDS011;9563;49.240;9.088;2022-12-29T04:05:21;2.03;;;0.93;;
18867;SDS011;9563;49.240;9.088;2022-12-29T04:07:48;2.10;;;1.10;;
18867;SDS011;9563;49.240;9.088;2022-12-29T04:10:15;4.63;;;1.30;;
18867;SDS011;9563;49.240;9.088;2022-12-29T04:12:42;3.13;;;1.10;;
18867;SDS011;9563;49.240;9.088;2022-12-29T04:15:11;2.25;;;0.85;;
18867;SDS011;9563;49.240;9.088;2022-12-29T04:17:38;6.70;;;1.30;;
18867;SDS011;9563;49.240;9.088;2022-12-29T04:20:05;1.93;;;1.23;;
18867;SDS011;9563;49.240;9.088;2022-12-29T04:22:58;4.20;;;1.07;;
18867;SDS011;9563;49.240;9.088;2022-12-29T04:25:25;2.70;;;1.20;;
18867;SDS011;9563;49.240;9.088;2022-12-29T04:27:52;6.20;;;1.27;;
18867;SDS011;9563;49.240;9.088;2022-12-29T04:30:19;2.07;;;1.00;;
18867;SDS011;9563;49.240;9.088;2022-12-29T04:32:46;2.20;;;1.00;;
18867;SDS011;9563;49.240;9.088;2022-12-29T04:35:14;1.77;;;0.90;;
18867;SDS011;9563;49.240;9.088;2022-12-29T04:37:41;3.40;;;1.30;;
18867;SDS011;9563;49.240;9.088;2022-12-29T04:40:10;1.37;;;1.00;;
18867;SDS011;9563;49.240;9.088;2022-12-29T04:42:38;1.87;;;1.00;;
18867;SDS011;9563;49.240;9.088;2022-12-29T04:45:05;4.28;;;1.00;;
18867;SDS011;9563;49.240;9.088;2022-12-29T04:47:33;1.27;;;0.80;;
18867;SDS011;9563;49.240;9.088;2022-12-29T04:50:00;1.52;;;0.75;;
18867;SDS011;9563;49.240;9.088;2022-12-29T04:52:26;1.25;;;0.70;;
18867;SDS011;9563;49.240;9.088;2022-12-29T04:54:53;2.50;;;1.15;;
18867;SDS011;9563;49.240;9.088;2022-12-29T04:57:22;4.20;;;0.95;;
18867;SDS011;9563;49.240;9.088;2022-12-29T04:59:48;2.42;;;1.23;;
18867;SDS011;9563;49.240;9.088;2022-12-29T05:02:15;2.43;;;0.83;;
18867;SDS011;9563;49.240;9.088;2022-12-29T05:04:43;3.40;;;1.10;;
18867;SDS011;9563;49.240;9.088;2022-12-29T05:07:10;2.30;;;1.00;;
18867;SDS011;9563;49.240;9.088;2022-12-29T05:09:37;1.07;;;0.80;;
18867;SDS011;9563;49.240;9.088;2022-12-29T05:12:05;1.90;;;0.90;;
18867;SDS011;9563;49.240;9.088;2022-12-29T05:14:33;1.20;;;0.75;;
18867;SDS011;9563;49.240;9.088;2022-12-29T05:17:00;2.75;;;0.90;;
18867;SDS011;9563;49.240;9.088;2022-12-29T05:19:27;3.17;;;1.13;;
18867;SDS011;9563;49.240;9.088;2022-12-29T05:21:54;2.17;;;1.03;;
18867;SDS011;9563;49.240;9.088;2022-12-29T05:24:20;1.17;;;0.68;;
18867;SDS011;9563;49.240;9.088;2022-12-29T05:26:47;1.90;;;0.70;;
18867;SDS011;9563;49.240;9.088;2022-12-29T05:29:14;2.03;;;0.70;;
18867;SDS011;9563;49.240;9.088;2022-12-29T05:31:42;1.30;;;0.80;;
18867;SDS011;9563;49.240;9.088;2022-12-29T05:34:10;2.58;;;0.80;;
18867;SDS011;9563;49.240;9.088;2022-12-29T05:36:37;2.70;;;1.08;;
18867;SDS011;9563;49.240;9.088;2022-12-29T05:39:04;5.22;;;1.65;;
18867;SDS011;9563;49.240;9.088;2022-12-29T05:41:32;0.75;;;0.70;;
18867;SDS011;9563;49.240;9.088;2022-12-29T05:43:59;1.52;;;0.70;;
18867;SDS011;9563;49.240;9.088;2022-12-29T05:46:26;1.20;;;0.80;;
18867;SDS011;9563;49.240;9.088;2022-12-29T05:48:54;2.60;;;0.80;;
18867;SDS011;9563;49.240;9.088;2022-12-29T05:51:21;0.80;;;0.63;;
18867;SDS011;9563;49.240;9.088;2022-12-29T05:53:48;4.25;;;0.95;;
18867;SDS011;9563;49.240;9.088;2022-12-29T05:56:15;1.77;;;0.80;;
18867;SDS011;9563;49.240;9.088;2022-12-29T05:58:42;0.82;;;0.68;;
18867;SDS011;9563;49.240;9.088;2022-12-29T06:01:09;1.80;;;0.70;;
18867;SDS011;9563;49.240;9.088;2022-12-29T06:03:36;4.10;;;1.20;;
18867;SDS011;9563;49.240;9.088;2022-12-29T06:06:04;3.22;;;0.93;;
18867;SDS011;9563;49.240;9.088;2022-12-29T06:08:32;2.17;;;0.80;;
18867;SDS011;9563;49.240;9.088;2022-12-29T06:10:58;2.65;;;0.82;;
18867;SDS011;9563;49.240;9.088;2022-12-29T06:13:25;1.13;;;0.85;;
18867;SDS011;9563;49.240;9.088;2022-12-29T06:15:52;1.00;;;0.73;;
18867;SDS011;9563;49.240;9.088;2022-12-29T06:18:20;2.13;;;0.95;;
18867;SDS011;9563;49.240;9.088;2022-12-29T06:20:46;2.80;;;1.17;;
18867;SDS011;9563;49.240;9.088;2022-12-29T06:23:15;1.88;;;1.23;;
18867;SDS011;9563;49.240;9.088;2022-12-29T06:25:43;2.28;;;0.93;;
18867;SDS011;9563;49.240;9.088;2022-12-29T06:28:10;1.35;;;0.98;;
18867;SDS011;9563;49.240;9.088;2022-12-29T06:30:37;1.52;;;1.10;;
18867;SDS011;9563;49.240;9.088;2022-12-29T06:33:04;3.33;;;1.10;;
18867;SDS011;9563;49.240;9.088;2022-12-29T06:35:33;1.10;;;0.70;;
18867;SDS011;9563;49.240;9.088;2022-12-29T06:38:00;3.80;;;1.00;;
18867;SDS011;9563;49.240;9.088;2022-12-29T06:40:28;1.50;;;0.70;;
18867;SDS011;9563;49.240;9.088;2022-12-29T06:42:55;3.97;;;0.90;;
18867;SDS011;9563;49.240;9.088;2022-12-29T06:45:22;2.22;;;1.02;;
18867;SDS011;9563;49.240;9.088;2022-12-29T06:47:49;2.72;;;0.77;;
18867;SDS011;9563;49.240;9.088;2022-12-29T06:50:16;1.92;;;0.65;;
18867;SDS011;9563;49.240;9.088;2022-12-29T06:52:43;2.92;;;1.23;;
18867;SDS011;9563;49.240;9.088;2022-12-29T06:55:09;4.00;;;1.02;;
18867;SDS011;9563;49.240;9.088;2022-12-29T06:57:38;2.95;;;1.10;;
18867;SDS011;9563;49.240;9.088;2022-12-29T07:00:05;2.97;;;0.90;;
18867;SDS011;9563;49.240;9.088;2022-12-29T07:02:33;2.08;;;1.20;;
18867;SDS011;9563;49.240;9.088;2022-12-29T07:05:00;2.78;;;1.05;;
18867;SDS011;9563;49.240;9.088;2022-12-29T07:07:26;1.20;;;0.80;;
18867;SDS011;9563;49.240;9.088;2022-12-29T07:09:53;2.45;;;1.05;;
18867;SDS011;9563;49.240;9.088;2022-12-29T07:12:20;1.45;;;0.88;;
18867;SDS011;9563;49.240;9.088;2022-12-29T07:14:49;2.17;;;1.17;;
18867;SDS011;9563;49.240;9.088;2022-12-29T07:17:16;3.63;;;0.93;;
18867;SDS011;9563;49.240;9.088;2022-12-29T07:19:42;1.42;;;0.82;;
18867;SDS011;9563;49.240;9.088;2022-12-29T07:22:10;8.65;;;1.48;;
18867;SDS011;9563;49.240;9.088;2022-12-29T07:24:36;2.72;;;1.30;;
18867;SDS011;9563;49.240;9.088;2022-12-29T07:27:04;5.68;;;1.77;;
18867;SDS011;9563;49.240;9.088;2022-12-29T07:29:31;2.08;;;1.35;;
18867;SDS011;9563;49.240;9.088;2022-12-29T07:31:59;5.78;;;1.42;;
18867;SDS011;9563;49.240;9.088;2022-12-29T07:34:26;2.78;;;0.90;;
18867;SDS011;9563;49.240;9.088;2022-12-29T07:36:54;2.95;;;1.27;;
18867;SDS011;9563;49.240;9.088;2022-12-29T07:39:21;4.60;;;1.42;;
18867;SDS011;9563;49.240;9.088;2022-12-29T07:41:47;3.47;;;1.30;;
18867;SDS011;9563;49.240;9.088;2022-12-29T07:44:14;8.13;;;1.98;;
18867;SDS011;9563;49.240;9.088;2022-12-29T07:46:41;6.82;;;1.60;;
18867;SDS011;9563;49.240;9.088;2022-12-29T07:49:10;4.20;;;1.48;;
18867;SDS011;9563;49.240;9.088;2022-12-29T07:51:36;2.95;;;1.30;;
18867;SDS011;9563;49.240;9.088;2022-12-29T07:54:03;4.15;;;1.10;;
18867;SDS011;9563;49.240;9.088;2022-12-29T07:56:30;4.63;;;1.33;;
18867;SDS011;9563;49.240;9.088;2022-12-29T07:58:57;2.53;;;1.10;;
18867;SDS011;9563;49.240;9.088;2022-12-29T08:01:24;2.22;;;1.10;;
18867;SDS011;9563;49.240;9.088;2022-12-29T08:03:51;1.45;;;1.10;;
18867;SDS011;9563;49.240;9.088;2022-12-29T08:06:19;1.90;;;1.13;;
18867;SDS011;9563;49.240;9.088;2022-12-29T08:08:47;3.60;;;1.15;;
18867;SDS011;9563;49.240;9.088;2022-12-29T08:11:14;2.58;;;1.27;;
18867;SDS011;9563;49.240;9.088;2022-12-29T08:13:40;2.63;;;1.38;;
18867;SDS011;9563;49.240;9.088;2022-12-29T08:16:07;2.45;;;1.17;;
18867;SDS011;9563;49.240;9.088;2022-12-29T08:18:34;1.50;;;0.93;;
18867;SDS011;9563;49.240;9.088;2022-12-29T08:21:02;2.92;;;1.48;;
18867;SDS011;9563;49.240;9.088;2022-12-29T08:23:30;2.58;;;1.10;;
18867;SDS011;9563;49.240;9.088;2022-12-29T08:25:58;2.40;;;1.15;;
18867;SDS011;9563;49.240;9.088;2022-12-29T08:28:25;2.08;;;1.10;;
18867;SDS011;9563;49.240;9.088;2022-12-29T08:30:52;2.85;;;1.23;;
18867;SDS011;9563;49.240;9.088;2022-12-29T08:33:19;2.83;;;1.25;;
18867;SDS011;9563;49.240;9.088;2022-12-29T08:35:46;3.50;;;1.30;;
18867;SDS011;9563;49.240;9.088;2022-12-29T08:38:13;3.00;;;1.23;;
18867;SDS011;9563;49.240;9.088;2022-12-29T08:40:41;2.10;;;1.42;;
18867;SDS011;9563;49.240;9.088;2022-12-29T08:43:08;5.28;;;1.40;;
18867;SDS011;9563;49.240;9.088;2022-12-29T08:45:35;2.08;;;1.08;;
18867;SDS011;9563;49.240;9.088;2022-12-29T08:48:02;2.65;;;1.20;;
18867;SDS011;9563;49.240;9.088;2022-12-29T08:50:29;3.00;;;1.35;;
18867;SDS011;9563;49.240;9.088;2022-12-29T08:52:56;2.50;;;1.08;;
18867;SDS011;9563;49.240;9.088;2022-12-29T08:55:23;3.20;;;1.30;;
18867;SDS011;9563;49.240;9.088;2022-12-29T08:57:51;3.08;;;1.30;;
18867;SDS011;9563;49.240;9.088;2022-12-29T09:00:18;4.97;;;1.30;;
18867;SDS011;9563;49.240;9.088;2022-12-29T09:02:46;4.13;;;1.40;;
18867;SDS011;9563;49.240;9.088;2022-12-29T09:05:13;1.75;;;0.90;;
18867;SDS011;9563;49.240;9.088;2022-12-29T09:07:40;3.55;;;1.17;;
18867;SDS011;9563;49.240;9.088;2022-12-29T09:10:07;2.25;;;1.10;;
18867;SDS011;9563;49.240;9.088;2022-12-29T09:12:34;7.10;;;1.20;;
18867;SDS011;9563;49.240;9.088;2022-12-29T09:15:03;1.77;;;1.17;;
18867;SDS011;9563;49.240;9.088;2022-12-29T09:17:31;2.70;;;1.55;;
18867;SDS011;9563;49.240;9.088;2022-12-29T09:20:07;3.40;;;1.38;;
18867;SDS011;9563;49.240;9.088;2022-12-29T09:22:35;5.72;;;1.63;;
18867;SDS011;9563;49.240;9.088;2022-12-29T09:25:02;2.40;;;1.30;;
18867;SDS011;9563;49.240;9.088;2022-12-29T09:27:29;3.85;;;1.40;;
18867;SDS011;9563;49.240;9.088;2022-12-29T09:29:56;2.40;;;1.10;;
18867;SDS011;9563;49.240;9.088;2022-12-29T09:32:24;2.78;;;1.10;;
18867;SDS011;9563;49.240;9.088;2022-12-29T09:34:51;2.70;;;1.30;;
18867;SDS011;9563;49.240;9.088;2022-12-29T09:37:18;3.15;;;1.30;;
18867;SDS011;9563;49.240;9.088;2022-12-29T09:39:46;4.13;;;1.63;;
18867;SDS011;9563;49.240;9.088;2022-12-29T09:42:14;2.03;;;1.25;;
18867;SDS011;9563;49.240;9.088;2022-12-29T09:44:48;2.63;;;1.05;;
18867;SDS011;9563;49.240;9.088;2022-12-29T09:47:22;3.00;;;1.55;;
18867;SDS011;9563;49.240;9.088;2022-12-29T09:49:53;1.92;;;1.13;;
18867;SDS011;9563;49.240;9.088;2022-12-29T09:52:26;4.10;;;1.17;;
18867;SDS011;9563;49.240;9.088;2022-12-29T09:54:58;2.30;;;1.05;;
18867;SDS011;9563;49.240;9.088;2022-12-29T09:57:29;3.42;;;1.13;;
18867;SDS011;9563;49.240;9.088;2022-12-29T10:00:01;2.45;;;1.27;;
18867;SDS011;9563;49.240;9.088;2022-12-29T10:02:36;3.65;;;1.40;;
18867;SDS011;9563;49.240;9.088;2022-12-29T10:05:13;3.78;;;1.27;;
18867;SDS011;9563;49.240;9.088;2022-12-29T10:07:50;2.00;;;1.13;;
18867;SDS011;9563;49.240;9.088;2022-12-29T10:10:27;3.78;;;1.50;;
18867;SDS011;9563;49.240;9.088;2022-12-29T10:13:02;2.80;;;1.63;;
18867;SDS011;9563;49.240;9.088;2022-12-29T10:15:39;4.15;;;1.50;;
18867;SDS011;9563;49.240;9.088;2022-12-29T10:18:17;5.28;;;1.52;;
18867;SDS011;9563;49.240;9.088;2022-12-29T10:21:00;1.75;;;1.20;;
18867;SDS011;9563;49.240;9.088;2022-12-29T10:23:33;3.60;;;1.52;;
18867;SDS011;9563;49.240;9.088;2022-12-29T10:26:08;1.98;;;1.30;;
18867;SDS011;9563;49.240;9.088;2022-12-29T10:28:40;5.05;;;1.38;;
18867;SDS011;9563;49.240;9.088;2022-12-29T10:31:11;3.42;;;1.67;;
18867;SDS011;9563;49.240;9.088;2022-12-29T10:33:48;6.85;;;1.50;;
18867;SDS011;9563;49.240;9.088;2022-12-29T10:36:18;4.32;;;1.52;;
18867;SDS011;9563;49.240;9.088;2022-12-29T10:38:53;3.65;;;1.88;;
18867;SDS011;9563;49.240;9.088;2022-12-29T10:41:32;4.30;;;1.20;;
18867;SDS011;9563;49.240;9.088;2022-12-29T10:44:04;9.80;;;1.20;;
18867;SDS011;9563;49.240;9.088;2022-12-29T10:46:34;6.35;;;1.50;;
18867;SDS011;9563;49.240;9.088;2022-12-29T10:49:04;4.47;;;1.35;;
18867;SDS011;9563;49.240;9.088;2022-12-29T10:51:39;2.42;;;1.40;;
18867;SDS011;9563;49.240;9.088;2022-12-29T10:54:10;8.35;;;2.05;;
18867;SDS011;9563;49.240;9.088;2022-12-29T10:56:42;4.15;;;1.55;;
18867;SDS011;9563;49.240;9.088;2022-12-29T10:59:13;3.13;;;1.50;;
18867;SDS011;9563;49.240;9.088;2022-12-29T11:01:49;2.28;;;1.33;;
18867;SDS011;9563;49.240;9.088;2022-12-29T11:04:28;2.75;;;1.48;;
18867;SDS011;9563;49.240;9.088;2022-12-29T11:07:04;7.60;;;1.60;;
18867;SDS011;9563;49.240;9.088;2022-12-29T11:09:34;3.95;;;1.70;;
18867;SDS011;9563;49.240;9.088;2022-12-29T11:12:10;6.30;;;1.97;;
18867;SDS011;9563;49.240;9.088;2022-12-29T11:14:45;5.90;;;1.98;;
18867;SDS011;9563;49.240;9.088;2022-12-29T11:17:14;2.90;;;1.73;;
18867;SDS011;9563;49.240;9.088;2022-12-29T11:19:44;3.17;;;1.70;;
18867;SDS011;9563;49.240;9.088;2022-12-29T11:22:12;4.47;;;2.20;;
18867;SDS011;9563;49.240;9.088;2022-12-29T11:24:43;1.73;;;1.20;;
18867;SDS011;9563;49.240;9.088;2022-12-29T11:27:14;6.07;;;2.10;;
18867;SDS011;9563;49.240;9.088;2022-12-29T11:29:42;4.63;;;1.55;;
18867;SDS011;9563;49.240;9.088;2022-12-29T11:32:10;2.60;;;1.60;;
18867;SDS011;9563;49.240;9.088;2022-12-29T11:34:38;5.20;;;1.90;;
18867;SDS011;9563;49.240;9.088;2022-12-29T11:37:09;3.73;;;1.60;;
18867;SDS011;9563;49.240;9.088;2022-12-29T11:39:40;6.35;;;2.30;;
18867;SDS011;9563;49.240;9.088;2022-12-29T11:42:13;3.55;;;1.63;;
18867;SDS011;9563;49.240;9.088;2022-12-29T11:44:43;3.60;;;1.55;;
18867;SDS011;9563;49.240;9.088;2022-12-29T11:47:12;6.43;;;2.00;;
18867;SDS011;9563;49.240;9.088;2022-12-29T11:49:52;6.07;;;1.80;;
18867;SDS011;9563;49.240;9.088;2022-12-29T11:52:24;3.92;;;1.75;;
18867;SDS011;9563;49.240;9.088;2022-12-29T11:54:53;4.15;;;1.88;;
18867;SDS011;9563;49.240;9.088;2022-12-29T11:57:22;5.97;;;1.67;;
18867;SDS011;9563;49.240;9.088;2022-12-29T11:59:52;3.67;;;1.58;;
18867;SDS011;9563;49.240;9.088;2022-12-29T12:02:30;2.85;;;1.60;;
18867;SDS011;9563;49.240;9.088;2022-12-29T12:05:05;7.32;;;1.40;;
18867;SDS011;9563;49.240;9.088;2022-12-29T12:07:40;4.32;;;1.85;;
18867;SDS011;9563;49.240;9.088;2022-12-29T12:10:19;10.88;;;2.20;;
18867;SDS011;9563;49.240;9.088;2022-12-29T12:12:51;3.63;;;2.13;;
18867;SDS011;9563;49.240;9.088;2022-12-29T12:15:24;3.72;;;1.73;;
18867;SDS011;9563;49.240;9.088;2022-12-29T12:17:57;3.43;;;1.70;;
18867;SDS011;9563;49.240;9.088;2022-12-29T12:20:36;3.75;;;1.75;;
18867;SDS011;9563;49.240;9.088;2022-12-29T12:23:14;3.55;;;1.77;;
18867;SDS011;9563;49.240;9.088;2022-12-29T12:25:53;4.07;;;1.75;;
18867;SDS011;9563;49.240;9.088;2022-12-29T12:28:26;3.70;;;1.80;;
18867;SDS011;9563;49.240;9.088;2022-12-29T12:31:00;4.53;;;1.70;;
18867;SDS011;9563;49.240;9.088;2022-12-29T12:33:38;5.85;;;1.80;;
18867;SDS011;9563;49.240;9.088;2022-12-29T12:36:14;4.30;;;1.80;;
18867;SDS011;9563;49.240;9.088;2022-12-29T12:38:55;4.82;;;2.10;;
18867;SDS011;9563;49.240;9.088;2022-12-29T12:41:31;5.07;;;1.83;;
18867;SDS011;9563;49.240;9.088;2022-12-29T12:44:07;4.45;;;1.65;;
18867;SDS011;9563;49.240;9.088;2022-12-29T12:46:49;2.78;;;1.45;;
18867;SDS011;9563;49.240;9.088;2022-12-29T12:49:34;3.45;;;1.30;;
18867;SDS011;9563;49.240;9.088;2022-12-29T12:52:11;3.15;;;2.00;;
18867;SDS011;9563;49.240;9.088;2022-12-29T12:54:54;4.30;;;1.20;;
18867;SDS011;9563;49.240;9.088;2022-12-29T12:57:47;4.20;;;1.55;;
18867;SDS011;9563;49.240;9.088;2022-12-29T13:00:20;5.90;;;1.60;;
18867;SDS011;9563;49.240;9.088;2022-12-29T13:02:51;3.45;;;1.40;;
18867;SDS011;9563;49.240;9.088;2022-12-29T13:05:32;3.90;;;1.23;;
18867;SDS011;9563;49.240;9.088;2022-12-29T13:08:28;1.48;;;1.02;;
18867;SDS011;9563;49.240;9.088;2022-12-29T13:11:13;7.70;;;1.35;;
18867;SDS011;9563;49.240;9.088;2022-12-29T13:13:53;4.50;;;0.80;;
18867;SDS011;9563;49.240;9.088;2022-12-29T13:16:36;5.05;;;1.70;;
18867;SDS011;9563;49.240;9.088;2022-12-29T13:19:10;8.75;;;1.00;;
18867;SDS011;9563;49.240;9.088;2022-12-29T13:21:48;2.05;;;0.90;;
18867;SDS011;9563;49.240;9.088;2022-12-29T13:24:33;2.03;;;0.90;;
18867;SDS011;9563;49.240;9.088;2022-12-29T13:27:11;2.42;;;0.80;;
18867;SDS011;9563;49.240;9.088;2022-12-29T13:29:46;5.07;;;1.25;;
18867;SDS011;9563;49.240;9.088;2022-12-29T13:32:21;1.17;;;0.70;;
18867;SDS011;9563;49.240;9.088;2022-12-29T13:35:00;2.42;;;0.70;;
18867;SDS011;9563;49.240;9.088;2022-12-29T13:37:41;1.67;;;0.80;;
18867;SDS011;9563;49.240;9.088;2022-12-29T13:40:14;2.25;;;0.80;;
18867;SDS011;9563;49.240;9.088;2022-12-29T13:42:45;2.40;;;0.90;;
18867;SDS011;9563;49.240;9.088;2022-12-29T13:45:14;1.48;;;1.08;;
18867;SDS011;9563;49.240;9.088;2022-12-29T13:47:44;2.78;;;1.08;;
18867;SDS011;9563;49.240;9.088;2022-12-29T13:50:15;0.95;;;0.70;;
18867;SDS011;9563;49.240;9.088;2022-12-29T13:52:45;1.92;;;1.10;;
18867;SDS011;9563;49.240;9.088;2022-12-29T13:55:20;3.08;;;0.90;;
18867;SDS011;9563;49.240;9.088;2022-12-29T13:57:56;2.85;;;0.88;;
18867;SDS011;9563;49.240;9.088;2022-12-29T14:00:28;4.65;;;1.00;;
18867;SDS011;9563;49.240;9.088;2022-12-29T14:03:11;2.33;;;0.80;;
18867;SDS011;9563;49.240;9.088;2022-12-29T14:06:11;2.08;;;1.27;;
18867;SDS011;9563;49.240;9.088;2022-12-29T14:08:45;1.67;;;1.30;;
18867;SDS011;9563;49.240;9.088;2022-12-29T14:11:14;2.70;;;1.10;;
18867;SDS011;9563;49.240;9.088;2022-12-29T14:13:45;1.65;;;1.13;;
18867;SDS011;9563;49.240;9.088;2022-12-29T14:16:22;4.72;;;1.08;;
18867;SDS011;9563;49.240;9.088;2022-12-29T14:18:52;7.75;;;1.10;;
18867;SDS011;9563;49.240;9.088;2022-12-29T14:21:22;2.47;;;1.17;;
18867;SDS011;9563;49.240;9.088;2022-12-29T14:23:57;5.32;;;1.50;;
18867;SDS011;9563;49.240;9.088;2022-12-29T14:26:42;4.30;;;1.23;;
18867;SDS011;9563;49.240;9.088;2022-12-29T14:29:41;2.73;;;1.40;;
18867;SDS011;9563;49.240;9.088;2022-12-29T14:38:12;3.10;;;1.10;;
18867;SDS011;9563;49.240;9.088;2022-12-29T14:40:48;2.13;;;1.13;;
18867;SDS011;9563;49.240;9.088;2022-12-29T14:43:20;4.85;;;1.17;;
18867;SDS011;9563;49.240;9.088;2022-12-29T14:45:56;4.70;;;1.20;;
18867;SDS011;9563;49.240;9.088;2022-12-29T14:48:36;5.00;;;1.10;;
18867;SDS011;9563;49.240;9.088;2022-12-29T14:57:02;2.60;;;1.00;;
18867;SDS011;9563;49.240;9.088;2022-12-29T14:59:32;1.43;;;1.00;;
18867;SDS011;9563;49.240;9.088;2022-12-29T15:02:03;3.57;;;1.47;;
18867;SDS011;9563;49.240;9.088;2022-12-29T15:04:38;4.43;;;1.30;;
18867;SDS011;9563;49.240;9.088;2022-12-29T15:07:07;5.53;;;1.03;;
18867;SDS011;9563;49.240;9.088;2022-12-29T15:09:36;3.83;;;1.03;;
18867;SDS011;9563;49.240;9.088;2022-12-29T15:12:11;3.57;;;1.27;;
18867;SDS011;9563;49.240;9.088;2022-12-29T15:14:49;4.40;;;1.73;;
18867;SDS011;9563;49.240;9.088;2022-12-29T15:17:25;6.33;;;1.53;;
18867;SDS011;9563;49.240;9.088;2022-12-29T15:19:53;4.53;;;1.10;;
18867;SDS011;9563;49.240;9.088;2022-12-29T15:22:32;2.00;;;1.07;;
18867;SDS011;9563;49.240;9.088;2022-12-29T15:24:59;4.77;;;1.03;;
18867;SDS011;9563;49.240;9.088;2022-12-29T15:27:26;4.47;;;1.20;;
18867;SDS011;9563;49.240;9.088;2022-12-29T15:29:56;4.40;;;1.30;;
18867;SDS011;9563;49.240;9.088;2022-12-29T15:32:28;4.47;;;1.27;;
18867;SDS011;9563;49.240;9.088;2022-12-29T15:35:16;3.47;;;1.43;;
18867;SDS011;9563;49.240;9.088;2022-12-29T15:37:50;3.77;;;1.37;;
18867;SDS011;9563;49.240;9.088;2022-12-29T15:40:21;3.73;;;1.70;;